sensor_id;sensor_type;location;lat;lon;timestamp;temperature;humidity
58568;DHT22;44354;46.192;-1.076;2023-02-21T00:01:32;6.90;99.90
58568;DHT22;44354;46.192;-1.076;2023-02-21T00:04:16;6.90;99.90
58568;DHT22;44354;46.192;-1.076;2023-02-21T00:07:00;6.80;99.90
58568;DHT22;44354;46.192;-1.076;2023-02-21T00:09:44;6.80;99.90
58568;DHT22;44354;46.192;-1.076;2023-02-21T00:12:28;6.70;99.90
58568;DHT22;44354;46.192;-1.076;2023-02-21T00:15:12;6.70;99.90
58568;DHT22;44354;46.192;-1.076;2023-02-21T00:17:56;6.60;99.90
58568;DHT22;44354;46.192;-1.076;2023-02-21T00:20:40;6.60;99.90
58568;DHT22;44354;46.192;-1.076;2023-02-21T00:23:24;6.70;99.90
58568;DHT22;44354;46.192;-1.076;2023-02-21T00:26:08;6.70;99.90
58568;DHT22;44354;46.192;-1.076;2023-02-21T00:28:52;6.80;99.90
58568;DHT22;44354;46.192;-1.076;2023-02-21T00:31:36;6.70;99.90
58568;DHT22;44354;46.192;-1.076;2023-02-21T00:34:20;6.70;99.90
58568;DHT22;44354;46.192;-1.076;2023-02-21T00:37:04;6.70;99.90
58568;DHT22;44354;46.192;-1.076;2023-02-21T00:39:48;6.60;99.90
58568;DHT22;44354;46.192;-1.076;2023-02-21T00:42:32;6.60;99.90
58568;DHT22;44354;46.192;-1.076;2023-02-21T00:45:16;6.50;99.90
58568;DHT22;44354;46.192;-1.076;2023-02-21T00:48:00;6.50;99.90
58568;DHT22;44354;46.192;-1.076;2023-02-21T00:50:45;6.50;99.90
58568;DHT22;44354;46.192;-1.076;2023-02-21T00:53:29;6.50;99.90
58568;DHT22;44354;46.192;-1.076;2023-02-21T00:56:13;6.50;99.90
58568;DHT22;44354;46.192;-1.076;2023-02-21T00:58:57;6.50;99.90
58568;DHT22;44354;46.192;-1.076;2023-02-21T01:01:41;6.50;99.90
58568;DHT22;44354;46.192;-1.076;2023-02-21T01:04:25;6.50;99.90
58568;DHT22;44354;46.192;-1.076;2023-02-21T01:07:09;6.50;99.90
58568;DHT22;44354;46.192;-1.076;2023-02-21T01:09:53;6.60;99.90
58568;DHT22;44354;46.192;-1.076;2023-02-21T01:12:38;6.60;99.90
58568;DHT22;44354;46.192;-1.076;2023-02-21T01:15:22;6.60;99.90
58568;DHT22;44354;46.192;-1.076;2023-02-21T01:18:06;6.60;99.90
58568;DHT22;44354;46.192;-1.076;2023-02-21T01:20:50;6.60;99.90
58568;DHT22;44354;46.192;-1.076;2023-02-21T01:23:34;6.60;99.90
58568;DHT22;44354;46.192;-1.076;2023-02-21T01:26:18;6.60;99.90
58568;DHT22;44354;46.192;-1.076;2023-02-21T01:29:02;6.60;99.90
58568;DHT22;44354;46.192;-1.076;2023-02-21T01:31:48;6.50;99.90
58568;DHT22;44354;46.192;-1.076;2023-02-21T01:34:32;6.50;99.90
58568;DHT22;44354;46.192;-1.076;2023-02-21T01:37:16;6.60;99.90
58568;DHT22;44354;46.192;-1.076;2023-02-21T01:40:00;6.70;99.90
58568;DHT22;44354;46.192;-1.076;2023-02-21T01:42:44;6.80;99.90
58568;DHT22;44354;46.192;-1.076;2023-02-21T01:45:37;6.80;99.90
58568;DHT22;44354;46.192;-1.076;2023-02-21T01:48:23;6.80;99.90
58568;DHT22;44354;46.192;-1.076;2023-02-21T01:51:09;6.80;99.90
58568;DHT22;44354;46.192;-1.076;2023-02-21T01:53:55;6.80;99.90
58568;DHT22;44354;46.192;-1.076;2023-02-21T01:56:39;6.80;99.90
58568;DHT22;44354;46.192;-1.076;2023-02-21T01:59:25;6.80;99.90
58568;DHT22;44354;46.192;-1.076;2023-02-21T02:02:40;6.70;99.90
58568;DHT22;44354;46.192;-1.076;2023-02-21T02:05:27;6.70;99.90
58568;DHT22;44354;46.192;-1.076;2023-02-21T02:08:12;6.60;99.90
58568;DHT22;44354;46.192;-1.076;2023-02-21T02:11:09;6.70;99.90
58568;DHT22;44354;46.192;-1.076;2023-02-21T02:20:18;6.60;99.90
58568;DHT22;44354;46.192;-1.076;2023-02-21T02:25:32;6.60;99.90
58568;DHT22;44354;46.192;-1.076;2023-02-21T02:36:46;6.50;99.90
58568;DHT22;44354;46.192;-1.076;2023-02-21T02:39:18;6.50;99.90
58568;DHT22;44354;46.192;-1.076;2023-02-21T02:42:15;6.50;99.90
58568;DHT22;44354;46.192;-1.076;2023-02-21T02:45:00;6.50;99.90
58568;DHT22;44354;46.192;-1.076;2023-02-21T02:47:32;6.50;99.90
58568;DHT22;44354;46.192;-1.076;2023-02-21T02:49:59;6.50;99.90
58568;DHT22;44354;46.192;-1.076;2023-02-21T02:52:26;6.50;99.90
58568;DHT22;44354;46.192;-1.076;2023-02-21T02:55:25;6.50;99.90
58568;DHT22;44354;46.192;-1.076;2023-02-21T02:57:54;6.60;99.90
58568;DHT22;44354;46.192;-1.076;2023-02-21T03:00:19;6.50;99.90
58568;DHT22;44354;46.192;-1.076;2023-02-21T03:08:32;6.50;99.90
58568;DHT22;44354;46.192;-1.076;2023-02-21T03:11:08;6.50;99.90
58568;DHT22;44354;46.192;-1.076;2023-02-21T03:13:45;6.50;99.90
58568;DHT22;44354;46.192;-1.076;2023-02-21T03:16:22;6.50;99.90
58568;DHT22;44354;46.192;-1.076;2023-02-21T03:21:24;6.40;99.90
58568;DHT22;44354;46.192;-1.076;2023-02-21T03:23:53;6.40;99.90
58568;DHT22;44354;46.192;-1.076;2023-02-21T03:26:21;6.40;99.90
58568;DHT22;44354;46.192;-1.076;2023-02-21T03:28:49;6.40;99.90
58568;DHT22;44354;46.192;-1.076;2023-02-21T03:31:16;6.30;99.90
58568;DHT22;44354;46.192;-1.076;2023-02-21T03:33:45;6.30;99.90
58568;DHT22;44354;46.192;-1.076;2023-02-21T03:36:11;6.30;99.90
58568;DHT22;44354;46.192;-1.076;2023-02-21T03:38:37;6.30;99.90
58568;DHT22;44354;46.192;-1.076;2023-02-21T03:41:03;6.30;99.90
58568;DHT22;44354;46.192;-1.076;2023-02-21T03:43:29;6.40;99.90
58568;DHT22;44354;46.192;-1.076;2023-02-21T03:45:54;6.40;99.90
58568;DHT22;44354;46.192;-1.076;2023-02-21T03:48:20;6.30;99.90
58568;DHT22;44354;46.192;-1.076;2023-02-21T03:50:46;6.20;99.90
58568;DHT22;44354;46.192;-1.076;2023-02-21T03:53:11;6.20;99.90
58568;DHT22;44354;46.192;-1.076;2023-02-21T03:55:37;6.20;99.90
58568;DHT22;44354;46.192;-1.076;2023-02-21T03:58:03;6.20;99.90
58568;DHT22;44354;46.192;-1.076;2023-02-21T04:00:28;6.20;99.90
58568;DHT22;44354;46.192;-1.076;2023-02-21T04:02:54;6.30;99.90
58568;DHT22;44354;46.192;-1.076;2023-02-21T04:05:20;6.30;99.90
58568;DHT22;44354;46.192;-1.076;2023-02-21T04:07:46;6.30;99.90
58568;DHT22;44354;46.192;-1.076;2023-02-21T04:10:12;6.30;99.90
58568;DHT22;44354;46.192;-1.076;2023-02-21T04:12:38;6.30;99.90
58568;DHT22;44354;46.192;-1.076;2023-02-21T04:15:04;6.30;99.90
58568;DHT22;44354;46.192;-1.076;2023-02-21T04:17:30;6.40;99.90
58568;DHT22;44354;46.192;-1.076;2023-02-21T04:19:56;6.40;99.90
58568;DHT22;44354;46.192;-1.076;2023-02-21T04:22:22;6.30;99.90
58568;DHT22;44354;46.192;-1.076;2023-02-21T04:24:47;6.30;99.90
58568;DHT22;44354;46.192;-1.076;2023-02-21T04:27:14;6.30;99.90
58568;DHT22;44354;46.192;-1.076;2023-02-21T04:29:39;6.30;99.90
58568;DHT22;44354;46.192;-1.076;2023-02-21T04:32:05;6.30;99.90
58568;DHT22;44354;46.192;-1.076;2023-02-21T04:34:31;6.30;99.90
58568;DHT22;44354;46.192;-1.076;2023-02-21T04:36:56;6.40;99.90
58568;DHT22;44354;46.192;-1.076;2023-02-21T04:39:22;6.40;99.90
58568;DHT22;44354;46.192;-1.076;2023-02-21T04:41:48;6.40;99.90
58568;DHT22;44354;46.192;-1.076;2023-02-21T04:44:13;6.40;99.90
58568;DHT22;44354;46.192;-1.076;2023-02-21T04:46:39;6.50;99.90
58568;DHT22;44354;46.192;-1.076;2023-02-21T04:49:05;6.50;99.90
58568;DHT22;44354;46.192;-1.076;2023-02-21T04:51:30;6.60;99.90
58568;DHT22;44354;46.192;-1.076;2023-02-21T04:53:56;6.70;99.90
58568;DHT22;44354;46.192;-1.076;2023-02-21T04:56:24;6.70;99.90
58568;DHT22;44354;46.192;-1.076;2023-02-21T04:58:51;6.80;99.90
58568;DHT22;44354;46.192;-1.076;2023-02-21T05:01:18;6.80;99.90
58568;DHT22;44354;46.192;-1.076;2023-02-21T05:03:44;6.80;99.90
58568;DHT22;44354;46.192;-1.076;2023-02-21T05:06:10;6.90;99.90
58568;DHT22;44354;46.192;-1.076;2023-02-21T05:08:35;6.90;99.90
58568;DHT22;44354;46.192;-1.076;2023-02-21T05:11:01;6.90;99.90
58568;DHT22;44354;46.192;-1.076;2023-02-21T05:13:27;7.00;99.90
58568;DHT22;44354;46.192;-1.076;2023-02-21T05:15:53;7.00;99.90
58568;DHT22;44354;46.192;-1.076;2023-02-21T05:18:18;7.00;99.90
58568;DHT22;44354;46.192;-1.076;2023-02-21T05:20:50;7.10;99.90
58568;DHT22;44354;46.192;-1.076;2023-02-21T05:23:17;7.10;99.90
58568;DHT22;44354;46.192;-1.076;2023-02-21T05:26:08;7.10;99.90
58568;DHT22;44354;46.192;-1.076;2023-02-21T05:28:35;7.10;99.90
58568;DHT22;44354;46.192;-1.076;2023-02-21T05:31:01;7.10;99.90
58568;DHT22;44354;46.192;-1.076;2023-02-21T05:33:27;7.10;99.90
58568;DHT22;44354;46.192;-1.076;2023-02-21T05:35:53;7.10;99.90
58568;DHT22;44354;46.192;-1.076;2023-02-21T05:38:20;7.10;99.90
58568;DHT22;44354;46.192;-1.076;2023-02-21T05:40:46;7.10;99.90
58568;DHT22;44354;46.192;-1.076;2023-02-21T05:43:12;7.20;99.90
58568;DHT22;44354;46.192;-1.076;2023-02-21T05:45:38;7.20;99.90
58568;DHT22;44354;46.192;-1.076;2023-02-21T05:48:03;7.20;99.90
58568;DHT22;44354;46.192;-1.076;2023-02-21T05:50:29;7.20;99.90
58568;DHT22;44354;46.192;-1.076;2023-02-21T05:52:56;7.20;99.90
58568;DHT22;44354;46.192;-1.076;2023-02-21T05:55:22;7.20;99.90
58568;DHT22;44354;46.192;-1.076;2023-02-21T05:57:48;7.20;99.90
58568;DHT22;44354;46.192;-1.076;2023-02-21T06:00:20;7.20;99.90
58568;DHT22;44354;46.192;-1.076;2023-02-21T06:02:49;7.20;99.90
58568;DHT22;44354;46.192;-1.076;2023-02-21T06:05:17;7.20;99.90
58568;DHT22;44354;46.192;-1.076;2023-02-21T06:07:42;7.20;99.90
58568;DHT22;44354;46.192;-1.076;2023-02-21T06:10:08;7.20;99.90
58568;DHT22;44354;46.192;-1.076;2023-02-21T06:12:34;7.20;99.90
58568;DHT22;44354;46.192;-1.076;2023-02-21T06:15:01;7.10;99.90
58568;DHT22;44354;46.192;-1.076;2023-02-21T06:17:26;7.10;99.90
58568;DHT22;44354;46.192;-1.076;2023-02-21T06:19:55;7.10;99.90
58568;DHT22;44354;46.192;-1.076;2023-02-21T06:22:21;7.00;99.90
58568;DHT22;44354;46.192;-1.076;2023-02-21T06:24:46;6.90;99.90
58568;DHT22;44354;46.192;-1.076;2023-02-21T06:27:12;6.90;99.90
58568;DHT22;44354;46.192;-1.076;2023-02-21T06:29:38;6.80;99.90
58568;DHT22;44354;46.192;-1.076;2023-02-21T06:32:04;6.70;99.90
58568;DHT22;44354;46.192;-1.076;2023-02-21T06:34:30;6.70;99.90
58568;DHT22;44354;46.192;-1.076;2023-02-21T06:36:56;6.70;99.90
58568;DHT22;44354;46.192;-1.076;2023-02-21T06:39:22;6.80;99.90
58568;DHT22;44354;46.192;-1.076;2023-02-21T06:41:51;6.80;99.90
58568;DHT22;44354;46.192;-1.076;2023-02-21T06:44:18;6.80;99.90
58568;DHT22;44354;46.192;-1.076;2023-02-21T06:46:44;6.80;99.90
58568;DHT22;44354;46.192;-1.076;2023-02-21T06:49:11;6.80;99.90
58568;DHT22;44354;46.192;-1.076;2023-02-21T06:51:39;6.70;99.90
58568;DHT22;44354;46.192;-1.076;2023-02-21T06:54:06;6.70;99.90
58568;DHT22;44354;46.192;-1.076;2023-02-21T06:56:34;6.70;99.90
58568;DHT22;44354;46.192;-1.076;2023-02-21T06:59:00;6.70;99.90
58568;DHT22;44354;46.192;-1.076;2023-02-21T07:01:27;6.70;99.90
58568;DHT22;44354;46.192;-1.076;2023-02-21T07:03:54;6.80;99.90
58568;DHT22;44354;46.192;-1.076;2023-02-21T07:06:20;6.80;99.90
58568;DHT22;44354;46.192;-1.076;2023-02-21T07:08:47;6.80;99.90
58568;DHT22;44354;46.192;-1.076;2023-02-21T07:11:13;6.80;99.90
58568;DHT22;44354;46.192;-1.076;2023-02-21T07:13:38;6.80;99.90
58568;DHT22;44354;46.192;-1.076;2023-02-21T07:16:05;6.90;99.90
58568;DHT22;44354;46.192;-1.076;2023-02-21T07:18:31;6.90;99.90
58568;DHT22;44354;46.192;-1.076;2023-02-21T07:20:57;6.90;99.90
58568;DHT22;44354;46.192;-1.076;2023-02-21T07:23:22;7.00;99.90
58568;DHT22;44354;46.192;-1.076;2023-02-21T07:25:48;7.10;99.90
58568;DHT22;44354;46.192;-1.076;2023-02-21T07:28:14;7.10;99.90
58568;DHT22;44354;46.192;-1.076;2023-02-21T07:30:40;7.10;99.90
58568;DHT22;44354;46.192;-1.076;2023-02-21T07:33:06;7.10;99.90
58568;DHT22;44354;46.192;-1.076;2023-02-21T07:35:31;7.20;99.90
58568;DHT22;44354;46.192;-1.076;2023-02-21T07:37:57;7.20;99.90
58568;DHT22;44354;46.192;-1.076;2023-02-21T07:40:23;7.20;99.90
58568;DHT22;44354;46.192;-1.076;2023-02-21T07:42:48;7.20;99.90
58568;DHT22;44354;46.192;-1.076;2023-02-21T07:45:15;7.30;99.90
58568;DHT22;44354;46.192;-1.076;2023-02-21T07:47:41;7.30;99.90
58568;DHT22;44354;46.192;-1.076;2023-02-21T07:50:08;7.30;99.90
58568;DHT22;44354;46.192;-1.076;2023-02-21T07:52:35;7.30;99.90
58568;DHT22;44354;46.192;-1.076;2023-02-21T07:55:00;7.40;99.90
58568;DHT22;44354;46.192;-1.076;2023-02-21T07:57:26;7.40;99.90
58568;DHT22;44354;46.192;-1.076;2023-02-21T07:59:52;7.40;99.90
58568;DHT22;44354;46.192;-1.076;2023-02-21T08:02:18;7.50;99.90
58568;DHT22;44354;46.192;-1.076;2023-02-21T08:04:43;7.50;99.90
58568;DHT22;44354;46.192;-1.076;2023-02-21T08:07:09;7.60;99.90
58568;DHT22;44354;46.192;-1.076;2023-02-21T08:09:35;7.70;99.90
58568;DHT22;44354;46.192;-1.076;2023-02-21T08:12:02;7.70;99.90
58568;DHT22;44354;46.192;-1.076;2023-02-21T08:14:28;7.70;99.90
58568;DHT22;44354;46.192;-1.076;2023-02-21T08:16:53;7.80;99.90
58568;DHT22;44354;46.192;-1.076;2023-02-21T08:19:19;7.80;99.90
58568;DHT22;44354;46.192;-1.076;2023-02-21T08:21:46;7.80;99.90
58568;DHT22;44354;46.192;-1.076;2023-02-21T08:24:12;7.90;99.90
58568;DHT22;44354;46.192;-1.076;2023-02-21T08:26:38;7.90;99.90
58568;DHT22;44354;46.192;-1.076;2023-02-21T08:29:06;7.90;99.90
58568;DHT22;44354;46.192;-1.076;2023-02-21T08:31:39;8.00;99.90
58568;DHT22;44354;46.192;-1.076;2023-02-21T08:34:06;8.00;99.90
58568;DHT22;44354;46.192;-1.076;2023-02-21T08:36:37;8.10;99.90
58568;DHT22;44354;46.192;-1.076;2023-02-21T08:39:04;8.20;99.90
58568;DHT22;44354;46.192;-1.076;2023-02-21T08:41:42;8.30;99.90
58568;DHT22;44354;46.192;-1.076;2023-02-21T08:44:10;8.30;99.90
58568;DHT22;44354;46.192;-1.076;2023-02-21T08:46:36;8.40;99.90
58568;DHT22;44354;46.192;-1.076;2023-02-21T08:49:04;8.50;99.90
58568;DHT22;44354;46.192;-1.076;2023-02-21T08:51:31;8.50;99.90
58568;DHT22;44354;46.192;-1.076;2023-02-21T08:53:57;8.60;99.90
58568;DHT22;44354;46.192;-1.076;2023-02-21T08:56:24;8.70;99.90
58568;DHT22;44354;46.192;-1.076;2023-02-21T08:58:51;8.70;99.90
58568;DHT22;44354;46.192;-1.076;2023-02-21T09:01:19;8.70;99.90
58568;DHT22;44354;46.192;-1.076;2023-02-21T09:03:45;8.80;99.90
58568;DHT22;44354;46.192;-1.076;2023-02-21T09:06:12;8.90;99.90
58568;DHT22;44354;46.192;-1.076;2023-02-21T09:08:38;8.90;99.90
58568;DHT22;44354;46.192;-1.076;2023-02-21T09:11:05;9.00;99.90
58568;DHT22;44354;46.192;-1.076;2023-02-21T09:13:32;9.10;99.90
58568;DHT22;44354;46.192;-1.076;2023-02-21T09:16:02;9.20;99.90
58568;DHT22;44354;46.192;-1.076;2023-02-21T09:18:29;9.30;99.90
58568;DHT22;44354;46.192;-1.076;2023-02-21T09:20:56;9.40;99.90
58568;DHT22;44354;46.192;-1.076;2023-02-21T09:23:27;9.40;99.90
58568;DHT22;44354;46.192;-1.076;2023-02-21T09:25:53;9.50;99.90
58568;DHT22;44354;46.192;-1.076;2023-02-21T09:28:20;9.60;99.90
58568;DHT22;44354;46.192;-1.076;2023-02-21T09:30:46;9.70;99.90
58568;DHT22;44354;46.192;-1.076;2023-02-21T09:33:13;9.70;99.90
58568;DHT22;44354;46.192;-1.076;2023-02-21T09:35:39;9.70;99.90
58568;DHT22;44354;46.192;-1.076;2023-02-21T09:38:06;9.70;99.90
58568;DHT22;44354;46.192;-1.076;2023-02-21T09:43:11;9.90;99.90
58568;DHT22;44354;46.192;-1.076;2023-02-21T09:45:39;10.00;99.90
58568;DHT22;44354;46.192;-1.076;2023-02-21T09:48:13;10.00;99.90
58568;DHT22;44354;46.192;-1.076;2023-02-21T09:50:43;10.10;99.90
58568;DHT22;44354;46.192;-1.076;2023-02-21T09:53:13;10.10;99.90
58568;DHT22;44354;46.192;-1.076;2023-02-21T09:55:41;10.20;99.90
58568;DHT22;44354;46.192;-1.076;2023-02-21T09:58:14;10.30;99.90
58568;DHT22;44354;46.192;-1.076;2023-02-21T10:00:40;10.40;99.90
58568;DHT22;44354;46.192;-1.076;2023-02-21T10:05:58;10.40;99.90
58568;DHT22;44354;46.192;-1.076;2023-02-21T10:11:40;10.40;99.90
58568;DHT22;44354;46.192;-1.076;2023-02-21T10:14:18;10.40;99.90
58568;DHT22;44354;46.192;-1.076;2023-02-21T10:17:12;10.40;99.90
58568;DHT22;44354;46.192;-1.076;2023-02-21T10:19:44;10.30;99.90
58568;DHT22;44354;46.192;-1.076;2023-02-21T10:22:20;10.40;99.90
58568;DHT22;44354;46.192;-1.076;2023-02-21T10:24:47;10.60;99.90
58568;DHT22;44354;46.192;-1.076;2023-02-21T10:27:21;10.80;99.90
58568;DHT22;44354;46.192;-1.076;2023-02-21T10:32:27;11.10;99.90
58568;DHT22;44354;46.192;-1.076;2023-02-21T10:34:53;11.20;99.90
58568;DHT22;44354;46.192;-1.076;2023-02-21T10:37:43;11.40;99.90
58568;DHT22;44354;46.192;-1.076;2023-02-21T10:40:37;11.60;99.90
58568;DHT22;44354;46.192;-1.076;2023-02-21T10:45:56;12.30;99.90
58568;DHT22;44354;46.192;-1.076;2023-02-21T10:48:30;12.50;99.90
58568;DHT22;44354;46.192;-1.076;2023-02-21T10:53:29;12.70;99.90
58568;DHT22;44354;46.192;-1.076;2023-02-21T11:04:31;13.10;99.90
58568;DHT22;44354;46.192;-1.076;2023-02-21T11:07:05;13.20;99.90
58568;DHT22;44354;46.192;-1.076;2023-02-21T11:09:38;13.00;99.90
58568;DHT22;44354;46.192;-1.076;2023-02-21T11:14:40;12.80;99.90
58568;DHT22;44354;46.192;-1.076;2023-02-21T11:17:22;12.80;99.90
58568;DHT22;44354;46.192;-1.076;2023-02-21T11:19:52;12.70;99.90
58568;DHT22;44354;46.192;-1.076;2023-02-21T11:22:24;12.60;99.90
58568;DHT22;44354;46.192;-1.076;2023-02-21T11:27:17;12.40;99.90
58568;DHT22;44354;46.192;-1.076;2023-02-21T11:29:45;12.20;99.90
58568;DHT22;44354;46.192;-1.076;2023-02-21T11:32:29;12.00;99.90
58568;DHT22;44354;46.192;-1.076;2023-02-21T11:35:28;11.90;99.90
58568;DHT22;44354;46.192;-1.076;2023-02-21T11:37:55;11.70;99.90
58568;DHT22;44354;46.192;-1.076;2023-02-21T11:40:31;11.60;99.90
58568;DHT22;44354;46.192;-1.076;2023-02-21T11:43:26;11.60;99.90
58568;DHT22;44354;46.192;-1.076;2023-02-21T11:48:32;11.60;99.90
58568;DHT22;44354;46.192;-1.076;2023-02-21T11:51:04;11.70;99.90
58568;DHT22;44354;46.192;-1.076;2023-02-21T11:53:38;11.90;99.90
58568;DHT22;44354;46.192;-1.076;2023-02-21T12:02:01;12.20;99.90
58568;DHT22;44354;46.192;-1.076;2023-02-21T12:07:37;12.30;99.90
58568;DHT22;44354;46.192;-1.076;2023-02-21T12:10:22;12.30;99.90
58568;DHT22;44354;46.192;-1.076;2023-02-21T12:13:02;12.30;99.90
58568;DHT22;44354;46.192;-1.076;2023-02-21T12:24:44;12.30;99.90
58568;DHT22;44354;46.192;-1.076;2023-02-21T12:33:15;12.20;99.90
58568;DHT22;44354;46.192;-1.076;2023-02-21T12:47:20;12.50;99.90
58568;DHT22;44354;46.192;-1.076;2023-02-21T12:50:00;12.60;99.90
58568;DHT22;44354;46.192;-1.076;2023-02-21T12:55:25;12.80;99.90
58568;DHT22;44354;46.192;-1.076;2023-02-21T13:00:44;12.70;99.90
58568;DHT22;44354;46.192;-1.076;2023-02-21T13:05:57;12.60;99.90
58568;DHT22;44354;46.192;-1.076;2023-02-21T13:08:58;12.60;99.90
58568;DHT22;44354;46.192;-1.076;2023-02-21T13:11:45;12.70;99.90
58568;DHT22;44354;46.192;-1.076;2023-02-21T13:14:22;12.70;99.90
58568;DHT22;44354;46.192;-1.076;2023-02-21T13:16:51;12.70;99.90
58568;DHT22;44354;46.192;-1.076;2023-02-21T13:19:18;12.70;99.90
58568;DHT22;44354;46.192;-1.076;2023-02-21T13:24:55;12.60;99.90
58568;DHT22;44354;46.192;-1.076;2023-02-21T13:27:40;12.70;99.90
58568;DHT22;44354;46.192;-1.076;2023-02-21T13:30:12;12.70;99.90
58568;DHT22;44354;46.192;-1.076;2023-02-21T13:32:39;12.70;99.90
58568;DHT22;44354;46.192;-1.076;2023-02-21T13:35:20;12.70;99.90
58568;DHT22;44354;46.192;-1.076;2023-02-21T13:37:49;12.60;99.90
58568;DHT22;44354;46.192;-1.076;2023-02-21T13:40:24;12.70;99.90
58568;DHT22;44354;46.192;-1.076;2023-02-21T13:43:11;12.60;99.90
58568;DHT22;44354;46.192;-1.076;2023-02-21T13:45:38;12.60;99.90
58568;DHT22;44354;46.192;-1.076;2023-02-21T13:55:37;12.70;99.90
58568;DHT22;44354;46.192;-1.076;2023-02-21T14:29:33;12.60;99.90
58568;DHT22;44354;46.192;-1.076;2023-02-21T14:37:29;12.60;99.90
58568;DHT22;44354;46.192;-1.076;2023-02-21T14:43:16;12.60;99.90
58568;DHT22;44354;46.192;-1.076;2023-02-21T15:05:54;12.50;99.90
58568;DHT22;44354;46.192;-1.076;2023-02-21T15:08:22;12.50;99.90
58568;DHT22;44354;46.192;-1.076;2023-02-21T15:10:50;12.60;99.90
58568;DHT22;44354;46.192;-1.076;2023-02-21T15:13:31;12.60;99.90
58568;DHT22;44354;46.192;-1.076;2023-02-21T15:16:08;12.70;99.90
58568;DHT22;44354;46.192;-1.076;2023-02-21T15:18:37;12.70;99.90
58568;DHT22;44354;46.192;-1.076;2023-02-21T15:23:40;12.70;99.90
58568;DHT22;44354;46.192;-1.076;2023-02-21T15:28:43;12.80;99.90
58568;DHT22;44354;46.192;-1.076;2023-02-21T15:31:10;12.80;99.90
58568;DHT22;44354;46.192;-1.076;2023-02-21T15:33:41;12.90;99.90
58568;DHT22;44354;46.192;-1.076;2023-02-21T15:36:19;12.90;99.90
58568;DHT22;44354;46.192;-1.076;2023-02-21T15:38:49;12.90;99.90
58568;DHT22;44354;46.192;-1.076;2023-02-21T15:44:02;13.10;99.90
58568;DHT22;44354;46.192;-1.076;2023-02-21T15:46:44;13.00;99.90
58568;DHT22;44354;46.192;-1.076;2023-02-21T15:49:27;13.00;99.90
58568;DHT22;44354;46.192;-1.076;2023-02-21T15:51:53;12.90;99.90
58568;DHT22;44354;46.192;-1.076;2023-02-21T15:59:35;12.90;99.90
58568;DHT22;44354;46.192;-1.076;2023-02-21T16:02:15;12.90;99.90
58568;DHT22;44354;46.192;-1.076;2023-02-21T16:04:46;13.00;99.90
58568;DHT22;44354;46.192;-1.076;2023-02-21T16:07:32;13.00;99.90
58568;DHT22;44354;46.192;-1.076;2023-02-21T16:10:10;12.90;99.90
58568;DHT22;44354;46.192;-1.076;2023-02-21T16:12:43;12.90;99.90
58568;DHT22;44354;46.192;-1.076;2023-02-21T16:15:23;12.90;99.90
58568;DHT22;44354;46.192;-1.076;2023-02-21T16:18:02;12.80;99.90
58568;DHT22;44354;46.192;-1.076;2023-02-21T16:20:32;12.80;99.90
58568;DHT22;44354;46.192;-1.076;2023-02-21T16:28:23;12.80;99.90
58568;DHT22;44354;46.192;-1.076;2023-02-21T16:30:49;12.70;99.90
58568;DHT22;44354;46.192;-1.076;2023-02-21T16:33:15;12.70;99.90
58568;DHT22;44354;46.192;-1.076;2023-02-21T16:35:41;12.60;99.90
58568;DHT22;44354;46.192;-1.076;2023-02-21T16:38:16;12.60;99.90
58568;DHT22;44354;46.192;-1.076;2023-02-21T16:40:50;12.60;99.90
58568;DHT22;44354;46.192;-1.076;2023-02-21T16:43:24;12.50;99.90
58568;DHT22;44354;46.192;-1.076;2023-02-21T16:45:52;12.40;99.90
58568;DHT22;44354;46.192;-1.076;2023-02-21T16:48:25;12.40;99.90
58568;DHT22;44354;46.192;-1.076;2023-02-21T16:50:53;12.40;99.90
58568;DHT22;44354;46.192;-1.076;2023-02-21T16:53:21;12.30;99.90
58568;DHT22;44354;46.192;-1.076;2023-02-21T16:55:48;12.20;99.90
58568;DHT22;44354;46.192;-1.076;2023-02-21T16:58:25;12.20;99.90
58568;DHT22;44354;46.192;-1.076;2023-02-21T17:01:00;12.20;99.90
58568;DHT22;44354;46.192;-1.076;2023-02-21T17:03:26;12.20;99.90
58568;DHT22;44354;46.192;-1.076;2023-02-21T17:05:53;12.10;99.90
58568;DHT22;44354;46.192;-1.076;2023-02-21T17:08:20;12.10;99.90
58568;DHT22;44354;46.192;-1.076;2023-02-21T17:10:46;12.10;99.90
58568;DHT22;44354;46.192;-1.076;2023-02-21T17:13:12;12.10;99.90
58568;DHT22;44354;46.192;-1.076;2023-02-21T17:15:38;12.10;99.90
58568;DHT22;44354;46.192;-1.076;2023-02-21T17:18:04;12.00;99.90
58568;DHT22;44354;46.192;-1.076;2023-02-21T17:20:29;12.00;99.90
58568;DHT22;44354;46.192;-1.076;2023-02-21T17:22:55;12.00;99.90
58568;DHT22;44354;46.192;-1.076;2023-02-21T17:25:23;12.00;99.90
58568;DHT22;44354;46.192;-1.076;2023-02-21T17:27:49;11.90;99.90
58568;DHT22;44354;46.192;-1.076;2023-02-21T17:30:17;11.90;99.90
58568;DHT22;44354;46.192;-1.076;2023-02-21T17:32:43;11.90;99.90
58568;DHT22;44354;46.192;-1.076;2023-02-21T17:35:15;11.90;99.90
58568;DHT22;44354;46.192;-1.076;2023-02-21T17:37:44;11.80;99.90
58568;DHT22;44354;46.192;-1.076;2023-02-21T17:40:12;11.80;99.90
58568;DHT22;44354;46.192;-1.076;2023-02-21T17:42:39;11.80;99.90
58568;DHT22;44354;46.192;-1.076;2023-02-21T17:45:05;11.80;99.90
58568;DHT22;44354;46.192;-1.076;2023-02-21T17:47:31;11.80;99.90
58568;DHT22;44354;46.192;-1.076;2023-02-21T17:49:57;11.70;99.90
58568;DHT22;44354;46.192;-1.076;2023-02-21T17:52:25;11.70;99.90
58568;DHT22;44354;46.192;-1.076;2023-02-21T17:54:51;11.70;99.90
58568;DHT22;44354;46.192;-1.076;2023-02-21T17:57:17;11.70;99.90
58568;DHT22;44354;46.192;-1.076;2023-02-21T17:59:43;11.70;99.90
58568;DHT22;44354;46.192;-1.076;2023-02-21T18:02:13;11.60;99.90
58568;DHT22;44354;46.192;-1.076;2023-02-21T18:04:40;11.70;99.90
58568;DHT22;44354;46.192;-1.076;2023-02-21T18:07:06;11.60;99.90
58568;DHT22;44354;46.192;-1.076;2023-02-21T18:09:32;11.70;99.90
58568;DHT22;44354;46.192;-1.076;2023-02-21T18:11:59;11.70;99.90
58568;DHT22;44354;46.192;-1.076;2023-02-21T18:14:26;11.60;99.90
58568;DHT22;44354;46.192;-1.076;2023-02-21T18:16:54;11.60;99.90
58568;DHT22;44354;46.192;-1.076;2023-02-21T18:19:21;11.60;99.90
58568;DHT22;44354;46.192;-1.076;2023-02-21T18:21:48;11.60;99.90
58568;DHT22;44354;46.192;-1.076;2023-02-21T18:24:14;11.60;99.90
58568;DHT22;44354;46.192;-1.076;2023-02-21T18:26:41;11.60;99.90
58568;DHT22;44354;46.192;-1.076;2023-02-21T18:29:07;11.60;99.90
58568;DHT22;44354;46.192;-1.076;2023-02-21T18:31:34;11.60;99.90
58568;DHT22;44354;46.192;-1.076;2023-02-21T18:34:03;11.60;99.90
58568;DHT22;44354;46.192;-1.076;2023-02-21T18:36:30;11.60;99.90
58568;DHT22;44354;46.192;-1.076;2023-02-21T18:38:55;11.60;99.90
58568;DHT22;44354;46.192;-1.076;2023-02-21T18:41:22;11.60;99.90
58568;DHT22;44354;46.192;-1.076;2023-02-21T18:43:48;11.50;99.90
58568;DHT22;44354;46.192;-1.076;2023-02-21T18:46:17;11.60;99.90
58568;DHT22;44354;46.192;-1.076;2023-02-21T18:48:48;11.60;99.90
58568;DHT22;44354;46.192;-1.076;2023-02-21T18:51:16;11.60;99.90
58568;DHT22;44354;46.192;-1.076;2023-02-21T18:53:44;11.50;99.90
58568;DHT22;44354;46.192;-1.076;2023-02-21T18:56:11;11.50;99.90
58568;DHT22;44354;46.192;-1.076;2023-02-21T18:58:38;11.60;99.90
58568;DHT22;44354;46.192;-1.076;2023-02-21T19:01:04;11.50;99.90
58568;DHT22;44354;46.192;-1.076;2023-02-21T19:03:30;11.50;99.90